createdAt,value
2022-12-01T00:00:54.070Z,27.20
2022-12-01T00:03:56.314Z,28.05
2022-12-01T00:06:58.619Z,27.00
2022-12-01T00:10:19.766Z,29.65
2022-12-01T00:13:25.684Z,26.15
2022-12-01T00:16:28.174Z,28.02
2022-12-01T00:19:30.653Z,23.30
2022-12-01T00:22:33.633Z,29.10
2022-12-01T00:25:35.891Z,31.65
2022-12-01T00:28:39.594Z,23.85
2022-12-01T00:31:42.025Z,20.27
2022-12-01T00:34:44.342Z,18.33
2022-12-01T00:37:46.579Z,23.05
2022-12-01T00:40:48.913Z,23.00
2022-12-01T00:43:52.592Z,27.27
2022-12-01T00:46:55.266Z,25.70
2022-12-01T00:49:57.582Z,21.63
2022-12-01T00:52:59.972Z,27.30
2022-12-01T00:56:02.299Z,24.98
2022-12-01T00:59:05.941Z,22.80
2022-12-01T01:02:08.564Z,23.98
2022-12-01T01:05:10.959Z,23.75
2022-12-01T01:08:15.093Z,23.85
2022-12-01T01:11:17.336Z,21.40
2022-12-01T01:14:21.507Z,20.73
2022-12-01T01:17:23.993Z,23.17
2022-12-01T01:20:26.460Z,25.27
2022-12-01T01:23:29.173Z,30.55
2022-12-01T01:26:32.472Z,25.65
2022-12-01T01:29:36.506Z,26.60
2022-12-01T01:32:38.946Z,27.63
2022-12-01T01:35:41.555Z,25.73
2022-12-01T01:38:43.870Z,28.23
2022-12-01T01:41:46.129Z,27.42
2022-12-01T01:44:54.122Z,29.25
2022-12-01T01:47:58.273Z,26.52
2022-12-01T01:51:00.830Z,31.85
2022-12-01T01:54:05.512Z,32.30
2022-12-01T01:57:10.081Z,32.17
2022-12-01T02:00:17.869Z,30.95
2022-12-01T02:03:20.506Z,36.50
2022-12-01T02:06:23.967Z,36.92
2022-12-01T02:09:26.217Z,40.83
2022-12-01T02:12:45.232Z,39.92
2022-12-01T02:15:55.716Z,39.55
2022-12-01T02:19:05.219Z,43.33
2022-12-01T02:22:17.338Z,45.55
2022-12-01T02:25:22.598Z,48.00
2022-12-01T02:28:47.213Z,41.63
2022-12-01T02:31:56.718Z,44.30
2022-12-01T02:35:01.417Z,39.03
2022-12-01T02:38:09.915Z,46.30
2022-12-01T02:41:16.811Z,44.83
2022-12-01T02:44:22.709Z,41.85
2022-12-01T02:47:26.589Z,46.13
2022-12-01T02:50:30.662Z,45.13
2022-12-01T02:53:33.009Z,44.17
2022-12-01T02:56:35.323Z,39.67
2022-12-01T02:59:37.904Z,49.90
2022-12-01T03:02:50.633Z,42.70
2022-12-01T03:05:57.169Z,40.22
2022-12-01T03:09:06.628Z,45.13
2022-12-01T03:12:15.620Z,48.10
2022-12-01T03:15:26.730Z,42.30
2022-12-01T03:18:33.505Z,46.57
2022-12-01T03:21:40.584Z,45.60
2022-12-01T03:24:45.988Z,44.67
2022-12-01T03:28:19.835Z,48.33
2022-12-01T03:31:17.210Z,44.40
2022-12-01T03:34:24.128Z,49.70
2022-12-01T03:37:32.133Z,50.40
2022-12-01T03:40:37.235Z,57.58
2022-12-01T03:43:43.107Z,51.80
2022-12-01T03:46:52.157Z,56.67
2022-12-01T03:49:56.303Z,49.40
2022-12-01T03:53:06.515Z,50.42
2022-12-01T03:56:09.185Z,54.60
2022-12-01T03:59:11.553Z,52.92
2022-12-01T04:02:14.059Z,55.15
2022-12-01T04:05:22.422Z,62.85
2022-12-01T04:08:27.636Z,61.08
2022-12-01T04:11:48.360Z,57.78
2022-12-01T04:14:50.626Z,61.47
2022-12-01T04:17:52.960Z,67.00
2022-12-01T04:20:56.704Z,68.50
2022-12-01T04:24:02.073Z,78.97
2022-12-01T04:27:04.414Z,77.07
2022-12-01T04:30:08.386Z,72.90
2022-12-01T04:33:10.663Z,70.90
2022-12-01T04:36:14.268Z,70.65
2022-12-01T04:39:16.777Z,68.40
2022-12-01T04:42:19.276Z,75.38
2022-12-01T04:45:21.643Z,70.93
2022-12-01T04:48:23.975Z,70.57
2022-12-01T04:51:27.697Z,69.10
2022-12-01T04:54:30.178Z,67.70
2022-12-01T04:57:32.602Z,69.18
2022-12-01T05:00:35.789Z,67.43
2022-12-01T05:03:38.568Z,67.00
2022-12-01T05:06:42.925Z,72.32
2022-12-01T05:09:45.343Z,77.93
2022-12-01T05:12:47.710Z,76.72
2022-12-01T05:15:50.091Z,77.22
2022-12-01T05:19:12.954Z,74.35
2022-12-01T05:22:16.740Z,71.90
2022-12-01T05:25:19.230Z,69.97
2022-12-01T05:28:22.575Z,71.25
2022-12-01T05:31:25.716Z,84.70
2022-12-01T05:34:28.097Z,76.95
2022-12-01T05:37:34.727Z,74.97
2022-12-01T05:40:37.123Z,68.38
2022-12-01T05:43:39.558Z,68.85
2022-12-01T05:46:41.888Z,71.30
2022-12-01T05:49:44.332Z,71.03
2022-12-01T05:52:48.016Z,68.97
2022-12-01T05:55:52.265Z,64.97
2022-12-01T05:58:54.633Z,60.38
2022-12-01T06:01:57.112Z,57.63
2022-12-01T06:05:00.298Z,66.97
2022-12-01T06:08:06.078Z,68.75
2022-12-01T06:11:08.383Z,68.60
2022-12-01T06:14:10.720Z,56.72
2022-12-01T06:17:12.962Z,61.72
2022-12-01T06:20:15.396Z,63.35
2022-12-01T06:23:19.878Z,68.00
2022-12-01T06:26:22.497Z,72.28
2022-12-01T06:29:25.414Z,64.00
2022-12-01T06:32:27.713Z,67.28
2022-12-01T06:35:29.928Z,70.55
2022-12-01T06:38:34.930Z,65.53
2022-12-01T06:41:37.567Z,65.63
2022-12-01T06:44:39.901Z,58.60
2022-12-01T06:47:42.223Z,58.08
2022-12-01T06:50:44.656Z,57.38
2022-12-01T06:53:48.314Z,54.35
2022-12-01T06:56:50.779Z,54.90
2022-12-01T06:59:53.489Z,52.45
2022-12-01T07:02:56.298Z,64.22
2022-12-01T07:06:00.082Z,53.53
2022-12-01T07:09:04.236Z,59.50
2022-12-01T07:12:07.356Z,54.13
2022-12-01T07:15:10.579Z,52.03
2022-12-01T07:18:12.906Z,62.40
2022-12-01T07:21:15.872Z,53.63
2022-12-01T07:24:19.495Z,49.88
2022-12-01T07:27:21.854Z,54.65
2022-12-01T07:30:28.213Z,58.15
2022-12-01T07:33:34.261Z,58.65
2022-12-01T07:36:36.557Z,49.03
2022-12-01T07:39:40.316Z,61.47
2022-12-01T07:42:42.649Z,47.42
2022-12-01T07:45:45.006Z,50.90
2022-12-01T07:48:48.736Z,55.50
2022-12-01T07:51:53.612Z,47.42
2022-12-01T07:54:57.507Z,47.65
2022-12-01T07:58:00.882Z,47.70
2022-12-01T08:01:06.524Z,49.60
2022-12-01T08:04:09.554Z,46.22
2022-12-01T08:07:11.949Z,49.38
2022-12-01T08:10:16.194Z,50.05
2022-12-01T08:13:19.051Z,50.10
2022-12-01T08:16:23.186Z,52.47
2022-12-01T08:19:25.828Z,60.00
2022-12-01T08:22:28.121Z,55.00
2022-12-01T08:25:32.558Z,46.92
2022-12-01T08:28:36.251Z,56.97
2022-12-01T08:31:39.384Z,43.30
2022-12-01T08:34:41.822Z,48.65
2022-12-01T08:37:44.129Z,58.15
2022-12-01T08:40:47.906Z,47.25
2022-12-01T08:43:59.074Z,51.55
2022-12-01T08:47:02.209Z,49.08
2022-12-01T08:50:06.344Z,49.50
2022-12-01T08:53:08.650Z,48.92
2022-12-01T08:56:14.204Z,43.42
2022-12-01T08:59:16.500Z,47.45
2022-12-01T09:02:24.872Z,47.58
2022-12-01T09:05:28.097Z,46.92
2022-12-01T09:08:34.051Z,48.13
2022-12-01T09:11:38.217Z,45.85
2022-12-01T09:14:42.555Z,48.42
2022-12-01T09:17:44.829Z,44.53
2022-12-01T09:20:47.631Z,38.53
2022-12-01T09:23:50.202Z,40.42
2022-12-01T09:26:56.476Z,39.10
2022-12-01T09:29:59.456Z,40.42
2022-12-01T09:33:01.817Z,48.35
2022-12-01T09:36:05.849Z,43.90
2022-12-01T09:39:11.587Z,44.78
2022-12-01T09:42:16.698Z,42.00
2022-12-01T09:45:25.165Z,36.15
2022-12-01T09:48:43.530Z,44.72
2022-12-01T09:51:46.187Z,38.50
2022-12-01T09:54:48.967Z,43.50
2022-12-01T09:57:54.395Z,37.50
2022-12-01T10:01:00.287Z,35.80
2022-12-01T10:04:09.846Z,42.10
2022-12-01T10:07:18.381Z,36.03
2022-12-01T10:10:26.530Z,35.90
2022-12-01T10:13:33.034Z,32.95
2022-12-01T10:16:40.278Z,31.45
2022-12-01T10:19:48.447Z,35.42
2022-12-01T10:23:04.886Z,35.92
2022-12-01T10:26:14.245Z,31.27
2022-12-01T10:29:27.029Z,34.88
2022-12-01T10:32:35.899Z,32.40
2022-12-01T10:35:40.250Z,28.27
2022-12-01T10:38:42.577Z,33.97
2022-12-01T10:41:46.372Z,32.55
2022-12-01T10:44:53.883Z,29.23
2022-12-01T10:48:09.789Z,32.17
2022-12-01T10:51:20.148Z,33.47
2022-12-01T10:54:23.551Z,30.77
2022-12-01T10:57:29.608Z,24.27
2022-12-01T11:00:58.537Z,31.23
2022-12-01T11:04:01.707Z,27.67
2022-12-01T11:07:05.164Z,29.73
2022-12-01T11:10:18.781Z,32.28
2022-12-01T11:13:30.970Z,32.03
2022-12-01T11:16:43.517Z,27.85
2022-12-01T11:19:46.607Z,33.50
2022-12-01T11:22:48.920Z,27.60
2022-12-01T11:26:09.944Z,29.60
2022-12-01T11:29:27.954Z,24.45
2022-12-01T11:32:33.917Z,28.75
2022-12-01T11:35:37.941Z,27.83
2022-12-01T11:38:41.059Z,30.40
2022-12-01T11:41:44.021Z,27.55
2022-12-01T11:44:51.679Z,23.83
2022-12-01T11:48:23.289Z,27.73
2022-12-01T11:51:29.886Z,22.70
2022-12-01T11:54:33.287Z,23.20
2022-12-01T11:57:35.676Z,24.38
2022-12-01T12:00:46.397Z,28.10
2022-12-01T12:04:02.561Z,27.13
2022-12-01T12:07:11.883Z,26.95
2022-12-01T12:10:24.735Z,32.70
2022-12-01T12:13:48.690Z,26.25
2022-12-01T12:17:08.516Z,32.67
2022-12-01T12:20:33.328Z,31.60
2022-12-01T12:24:00.269Z,32.30
2022-12-01T12:27:10.049Z,31.65
2022-12-01T12:30:21.218Z,37.60
2022-12-01T12:33:37.264Z,36.07
2022-12-01T12:36:44.444Z,34.20
2022-12-01T12:39:58.207Z,36.63
2022-12-01T12:43:14.064Z,33.78
2022-12-01T12:46:20.291Z,37.47
2022-12-01T12:49:32.328Z,40.83
2022-12-01T12:52:40.612Z,34.95
2022-12-01T12:55:45.793Z,37.55
2022-12-01T12:58:55.116Z,44.13
2022-12-01T13:02:02.685Z,47.20
2022-12-01T13:05:10.365Z,42.67
2022-12-01T13:08:19.521Z,47.67
2022-12-01T13:11:25.878Z,42.35
2022-12-01T13:14:32.197Z,38.83
2022-12-01T13:17:37.425Z,44.47
2022-12-01T13:20:40.855Z,40.22
2022-12-01T13:23:44.868Z,41.70
2022-12-01T13:26:50.696Z,44.72
2022-12-01T13:29:56.199Z,46.72
2022-12-01T13:33:01.268Z,38.15
2022-12-01T13:36:38.560Z,46.40
2022-12-01T13:39:36.492Z,45.28
2022-12-01T13:42:39.947Z,44.30
2022-12-01T13:45:42.372Z,42.67
2022-12-01T13:48:52.579Z,50.50
2022-12-01T13:52:29.686Z,44.50
2022-12-01T13:55:33.725Z,45.50
2022-12-01T13:58:47.253Z,39.70
2022-12-01T14:01:49.754Z,42.42
2022-12-01T14:04:52.427Z,44.78
2022-12-01T14:07:55.090Z,40.17
2022-12-01T14:11:00.723Z,39.75
2022-12-01T14:14:12.127Z,42.10
2022-12-01T14:17:26.003Z,41.20
2022-12-01T14:20:31.249Z,39.47
2022-12-01T14:23:34.941Z,37.50
2022-12-01T14:26:45.562Z,40.72
2022-12-01T14:29:48.354Z,42.15
2022-12-01T14:32:50.768Z,39.33
2022-12-01T14:35:58.444Z,42.10
2022-12-01T14:39:06.339Z,41.58
2022-12-01T14:42:51.716Z,44.22
2022-12-01T14:49:00.486Z,46.20
2022-12-01T14:52:08.157Z,44.50
2022-12-01T14:55:19.743Z,40.85
2022-12-01T14:58:26.825Z,51.90
2022-12-01T15:01:35.235Z,47.13
2022-12-01T15:05:16.490Z,48.45
2022-12-01T15:11:53.123Z,47.50
2022-12-01T15:14:56.977Z,47.50
2022-12-01T15:18:01.760Z,49.22
2022-12-01T15:21:07.708Z,43.38
2022-12-01T15:24:21.165Z,44.00
2022-12-01T15:27:28.687Z,45.00
2022-12-01T15:30:32.648Z,48.33
2022-12-01T15:33:38.864Z,41.60
2022-12-01T15:36:43.039Z,42.88
2022-12-01T15:39:48.687Z,40.50
2022-12-01T15:43:02.730Z,40.20
2022-12-01T15:46:14.579Z,40.13
2022-12-01T15:49:19.528Z,35.90
2022-12-01T15:52:22.157Z,39.53
2022-12-01T15:55:27.418Z,36.13
2022-12-01T15:58:31.607Z,37.95
2022-12-01T16:01:36.343Z,39.63
2022-12-01T16:04:38.718Z,38.22
2022-12-01T16:11:10.742Z,39.00
2022-12-01T16:14:22.170Z,41.83
2022-12-01T16:17:27.659Z,40.95
2022-12-01T16:20:32.356Z,38.40
2022-12-01T16:23:35.540Z,38.67
2022-12-01T16:26:46.866Z,36.47
2022-12-01T16:29:52.477Z,38.47
2022-12-01T16:33:03.583Z,40.47
2022-12-01T16:36:06.802Z,38.73
2022-12-01T16:39:09.304Z,39.55
2022-12-01T16:42:13.600Z,41.17
2022-12-01T16:45:17.631Z,35.67
2022-12-01T16:48:21.623Z,44.83
2022-12-01T16:51:29.967Z,40.10
2022-12-01T16:54:38.012Z,38.67
2022-12-01T16:57:40.395Z,42.40
2022-12-01T17:00:42.750Z,47.03
2022-12-01T17:03:46.812Z,46.15
2022-12-01T17:06:49.112Z,44.50
2022-12-01T17:09:51.411Z,47.25
2022-12-01T17:12:54.276Z,47.25
2022-12-01T17:15:56.727Z,44.88
2022-12-01T17:19:01.679Z,48.25
2022-12-01T17:22:03.917Z,45.28
2022-12-01T17:25:07.113Z,52.63
2022-12-01T17:28:09.491Z,51.58
2022-12-01T17:31:12.424Z,53.58
2022-12-01T17:34:16.210Z,56.03
2022-12-01T17:37:21.099Z,53.50
2022-12-01T17:40:23.815Z,50.72
2022-12-01T17:43:26.124Z,52.13
2022-12-01T17:46:29.453Z,51.83
2022-12-01T17:49:35.195Z,57.03
2022-12-01T17:52:37.553Z,49.17
2022-12-01T17:55:40.098Z,58.03
2022-12-01T17:58:42.839Z,50.67
2022-12-01T18:01:45.382Z,50.42
2022-12-01T18:04:49.554Z,57.75
2022-12-01T18:07:52.579Z,59.30
2022-12-01T18:10:55.097Z,57.78
2022-12-01T18:13:58.206Z,66.55
2022-12-01T18:17:00.479Z,66.05
2022-12-01T18:20:04.976Z,78.15
2022-12-01T18:23:07.525Z,65.10
2022-12-01T18:26:15.922Z,68.28
2022-12-01T18:29:25.786Z,72.15
2022-12-01T18:32:28.102Z,71.72
2022-12-01T18:35:32.205Z,71.00
2022-12-01T18:38:34.611Z,70.93
2022-12-01T18:41:37.559Z,76.65
2022-12-01T18:44:42.271Z,69.88
2022-12-01T18:47:45.310Z,67.18
2022-12-01T18:50:49.294Z,73.65
2022-12-01T18:53:55.045Z,69.78
2022-12-01T18:56:58.975Z,69.22
2022-12-01T19:00:01.663Z,62.50
2022-12-01T19:03:05.083Z,66.53
2022-12-01T19:06:09.977Z,59.70
2022-12-01T19:09:13.720Z,57.85
2022-12-01T19:12:16.042Z,61.15
2022-12-01T19:15:18.666Z,61.75
2022-12-01T19:18:21.544Z,49.53
2022-12-01T19:21:25.234Z,56.10
2022-12-01T19:24:27.559Z,48.35
2022-12-01T19:27:30.395Z,51.92
2022-12-01T19:30:32.751Z,54.22
2022-12-01T19:33:35.402Z,52.10
2022-12-01T19:36:39.421Z,55.65
2022-12-01T19:39:41.895Z,59.33
2022-12-01T19:42:45.922Z,55.22
2022-12-01T19:45:48.303Z,55.55
2022-12-01T19:48:54.286Z,43.20
2022-12-01T19:51:58.042Z,40.22
2022-12-01T19:55:00.344Z,36.80
2022-12-01T19:58:03.981Z,39.13
2022-12-01T20:01:09.204Z,41.13
2022-12-01T20:04:11.658Z,37.15
2022-12-01T20:07:15.502Z,39.67
2022-12-01T20:10:20.225Z,31.95
2022-12-01T20:13:23.019Z,34.17
2022-12-01T20:16:27.524Z,29.42
2022-12-01T20:19:30.925Z,36.10
2022-12-01T20:22:35.449Z,35.17
2022-12-01T20:25:37.943Z,31.65
2022-12-01T20:28:40.859Z,30.25
2022-12-01T20:31:43.846Z,32.78
2022-12-01T20:34:46.287Z,33.85
2022-12-01T20:37:50.773Z,32.80
2022-12-01T20:40:54.404Z,29.55
2022-12-01T20:43:56.739Z,28.48
2022-12-01T20:46:59.600Z,37.47
2022-12-01T20:50:03.207Z,33.90
2022-12-01T20:53:07.382Z,37.08
2022-12-01T20:56:12.883Z,35.30
2022-12-01T20:59:15.325Z,35.35
2022-12-01T21:02:17.564Z,37.50
2022-12-01T21:05:19.978Z,32.83
2022-12-01T21:08:23.697Z,35.83
2022-12-01T21:11:46.193Z,39.45
2022-12-01T21:14:56.251Z,36.03
2022-12-01T21:18:00.796Z,36.72
2022-12-01T21:21:07.953Z,40.17
2022-12-01T21:24:14.315Z,37.63
2022-12-01T21:27:17.805Z,38.55
2022-12-01T21:30:22.392Z,39.60
2022-12-01T21:33:28.406Z,43.40
2022-12-01T21:36:30.933Z,37.88
2022-12-01T21:39:34.676Z,40.88
2022-12-01T21:42:37.082Z,34.15
2022-12-01T21:45:39.459Z,39.00
2022-12-01T21:48:43.537Z,44.13
2022-12-01T21:51:49.612Z,44.00
2022-12-01T21:54:53.853Z,36.88
2022-12-01T21:57:56.544Z,38.45
2022-12-01T22:00:59.807Z,39.13
2022-12-01T22:04:09.571Z,44.80
2022-12-01T22:07:14.711Z,39.03
2022-12-01T22:10:49.662Z,44.85
2022-12-01T22:14:00.464Z,44.20
2022-12-01T22:17:14.966Z,44.60
2022-12-01T22:20:22.132Z,49.28
2022-12-01T22:23:32.169Z,44.80
2022-12-01T22:26:35.706Z,45.95
2022-12-01T22:29:42.643Z,41.05
2022-12-01T22:32:53.190Z,44.78
2022-12-01T22:35:55.711Z,48.88
2022-12-01T22:38:58.795Z,49.20
2022-12-01T22:42:04.308Z,48.92
2022-12-01T22:45:20.584Z,43.85
2022-12-01T22:48:37.890Z,45.25
2022-12-01T22:51:43.314Z,50.20
2022-12-01T22:54:49.389Z,49.38
2022-12-01T22:57:52.578Z,44.03
2022-12-01T23:00:58.172Z,47.40
2022-12-01T23:04:15.069Z,53.10
2022-12-01T23:07:33.803Z,46.85
2022-12-01T23:10:38.231Z,46.58
2022-12-01T23:13:41.040Z,45.92
2022-12-01T23:16:45.078Z,50.72
2022-12-01T23:19:48.821Z,47.00
2022-12-01T23:22:53.333Z,47.78
2022-12-01T23:25:56.646Z,39.80
2022-12-01T23:29:00.567Z,54.22
2022-12-01T23:32:05.333Z,43.95
2022-12-01T23:35:14.824Z,48.63
2022-12-01T23:38:19.961Z,46.08
2022-12-01T23:41:28.411Z,45.42
2022-12-01T23:44:38.851Z,45.63
2022-12-01T23:47:42.977Z,45.63
2022-12-01T23:50:46.054Z,40.08
2022-12-01T23:53:49.277Z,46.05
2022-12-01T23:56:53.399Z,44.53
2022-12-01T23:59:59.994Z,41.85
